createdAt,value
2022-08-28T00:00:51.600Z,69067.34
2022-08-28T00:03:18.748Z,69041.97
2022-08-28T00:05:46.717Z,69038.56
2022-08-28T00:08:16.964Z,69059.38
2022-08-28T00:10:47.068Z,69038.00
2022-08-28T00:13:18.918Z,69054.25
2022-08-28T00:15:49.348Z,69030.03
2022-08-28T00:18:17.891Z,69047.97
2022-08-28T00:20:46.622Z,69042.81
2022-08-28T00:23:14.019Z,69025.47
2022-08-28T00:25:41.274Z,69040.75
2022-08-28T00:28:10.792Z,69022.59
2022-08-28T00:30:53.790Z,69018.63
2022-08-28T00:33:33.473Z,69016.91
2022-08-28T00:36:02.414Z,69013.47
2022-08-28T00:38:29.999Z,69031.47
2022-08-28T00:41:04.031Z,69012.34
2022-08-28T00:43:40.133Z,69009.50
2022-08-28T00:46:11.656Z,69023.09
2022-08-28T00:48:40.440Z,69023.47
2022-08-28T00:51:26.864Z,69001.53
2022-08-28T00:53:58.944Z,69002.09
2022-08-28T00:56:29.119Z,69000.41
2022-08-28T00:59:02.019Z,69016.06
2022-08-28T01:01:30.217Z,69012.66
2022-08-28T01:03:58.022Z,68991.28
2022-08-28T01:06:25.234Z,69014.19
2022-08-28T01:08:53.900Z,68987.88
2022-08-28T01:11:21.384Z,69006.97
2022-08-28T01:13:49.953Z,68999.56
2022-08-28T01:16:19.530Z,68998.44
2022-08-28T01:18:48.314Z,68994.81
2022-08-28T01:21:39.619Z,68988.56
2022-08-28T01:24:14.383Z,68954.28
2022-08-28T01:26:42.630Z,68965.97
2022-08-28T01:29:11.567Z,68967.69
2022-08-28T01:31:41.631Z,68965.97
2022-08-28T01:34:12.609Z,68940.63
2022-08-28T01:36:40.373Z,68940.06
2022-08-28T01:39:18.789Z,68960.84
2022-08-28T01:41:48.480Z,68943.47
2022-08-28T01:44:17.985Z,68968.63
2022-08-28T01:46:46.654Z,68969.94
2022-08-28T01:49:15.838Z,68948.03
2022-08-28T01:51:43.110Z,68948.03
2022-08-28T01:54:11.865Z,68956.00
2022-08-28T01:56:41.923Z,68954.28
2022-08-28T01:59:10.552Z,68954.84
2022-08-28T02:01:38.218Z,68972.97
2022-08-28T02:04:06.356Z,68976.78
2022-08-28T02:06:34.097Z,68956.00
2022-08-28T02:09:04.051Z,68953.72
2022-08-28T02:11:32.831Z,68971.25
2022-08-28T02:14:01.248Z,68953.16
2022-08-28T02:16:28.854Z,68953.16
2022-08-28T02:18:56.740Z,68953.72
2022-08-28T02:21:25.398Z,68978.31
2022-08-28T02:23:53.111Z,68953.72
2022-08-28T02:26:21.132Z,68954.84
2022-08-28T02:28:48.764Z,68971.09
2022-08-28T02:31:16.139Z,68956.00
2022-08-28T02:33:44.984Z,68974.50
2022-08-28T02:36:14.188Z,68980.75
2022-08-28T02:38:45.050Z,68957.72
2022-08-28T02:41:12.704Z,68953.72
2022-08-28T02:43:40.602Z,68955.41
2022-08-28T02:46:08.362Z,68953.72
2022-08-28T02:48:37.179Z,68971.66
2022-08-28T02:51:07.822Z,68972.41
2022-08-28T02:53:36.429Z,68953.16
2022-08-28T02:56:05.091Z,68949.16
2022-08-28T02:58:35.695Z,68967.69
2022-08-28T03:01:15.669Z,68969.38
2022-08-28T03:03:43.035Z,68948.03
2022-08-28T03:06:12.553Z,68965.41
2022-08-28T03:08:41.672Z,68966.94
2022-08-28T03:11:09.590Z,68942.34
2022-08-28T03:13:36.639Z,68964.25
2022-08-28T03:16:05.053Z,68960.28
2022-08-28T03:18:33.266Z,68954.19
2022-08-28T03:21:00.570Z,68957.41
2022-08-28T03:23:28.023Z,68929.25
2022-08-28T03:26:13.105Z,68931.53
2022-08-28T03:28:48.049Z,68925.28
2022-08-28T03:31:19.767Z,68929.25
2022-08-28T03:33:48.669Z,68912.75
2022-08-28T03:36:21.398Z,68905.91
2022-08-28T03:38:50.205Z,68899.66
2022-08-28T03:41:21.549Z,68917.38
2022-08-28T03:43:49.433Z,68893.38
2022-08-28T03:46:17.954Z,68911.47
2022-08-28T03:48:45.706Z,68892.81
2022-08-28T03:51:24.622Z,68887.13
2022-08-28T03:53:58.211Z,68905.44
2022-08-28T03:56:27.206Z,68898.78
2022-08-28T03:58:57.490Z,68892.91
2022-08-28T04:01:25.725Z,68872.34
2022-08-28T04:03:53.039Z,68898.78
2022-08-28T04:06:20.223Z,68880.88
2022-08-28T04:08:48.424Z,68903.50
2022-08-28T04:11:15.605Z,68885.41
2022-08-28T04:13:42.824Z,68912.44
2022-08-28T04:16:21.344Z,68888.81
2022-08-28T04:18:49.649Z,68915.69
2022-08-28T04:21:21.113Z,68917.22
2022-08-28T04:23:48.435Z,68909.22
2022-08-28T04:26:18.746Z,68895.09
2022-08-28T04:28:46.771Z,68908.06
2022-08-28T04:31:15.010Z,68888.25
2022-08-28T04:33:42.590Z,68889.38
2022-08-28T04:36:13.145Z,68888.81
2022-08-28T04:38:44.031Z,68911.13
2022-08-28T04:41:14.067Z,68887.13
2022-08-28T04:43:42.082Z,68881.44
2022-08-28T04:46:12.687Z,68901.06
2022-08-28T04:48:41.458Z,68898.22
2022-08-28T04:51:12.358Z,68876.88
2022-08-28T04:53:39.730Z,68874.63
2022-08-28T04:56:10.044Z,68868.94
2022-08-28T04:58:39.131Z,68872.34
2022-08-28T05:01:12.839Z,68886.84
2022-08-28T05:03:40.259Z,68882.84
2022-08-28T05:06:08.611Z,68856.97
2022-08-28T05:08:35.975Z,68853.56
2022-08-28T05:11:32.672Z,68871.47
2022-08-28T05:14:02.016Z,68838.78
2022-08-28T05:16:29.187Z,68854.41
2022-08-28T05:19:00.500Z,68851.38
2022-08-28T05:21:28.266Z,68820.59
2022-08-28T05:23:57.882Z,68841.34
2022-08-28T05:26:26.881Z,68831.66
2022-08-28T05:28:55.337Z,68793.84
2022-08-28T05:31:23.947Z,68786.47
2022-08-28T05:33:53.255Z,68808.75
2022-08-28T05:36:23.196Z,68780.22
2022-08-28T05:38:56.743Z,68773.94
2022-08-28T05:41:30.179Z,68791.25
2022-08-28T05:44:02.714Z,68785.00
2022-08-28T05:46:29.997Z,68783.88
2022-08-28T05:49:00.775Z,68759.16
2022-08-28T05:51:28.829Z,68773.25
2022-08-28T05:53:57.982Z,68781.59
2022-08-28T05:56:30.098Z,68759.72
2022-08-28T05:59:25.066Z,68765.97
2022-08-28T06:02:00.879Z,68794.09
2022-08-28T06:04:40.507Z,68777.94
2022-08-28T06:07:44.007Z,68800.69
2022-08-28T06:10:11.826Z,68789.88
2022-08-28T06:12:38.991Z,68788.16
2022-08-28T06:15:08.629Z,68788.75
2022-08-28T06:17:40.645Z,68777.38
2022-08-28T06:20:09.128Z,68804.19
2022-08-28T06:22:36.328Z,68803.22
2022-08-28T06:25:07.422Z,68802.47
2022-08-28T06:27:39.246Z,68785.34
2022-08-28T06:30:07.122Z,68808.34
2022-08-28T06:32:37.026Z,68814.59
2022-08-28T06:35:05.022Z,68806.81
2022-08-28T06:37:34.140Z,68784.19
2022-08-28T06:40:02.256Z,68787.59
2022-08-28T06:42:33.939Z,68811.94
2022-08-28T06:45:01.568Z,68811.56
2022-08-28T06:47:28.811Z,68792.16
2022-08-28T06:51:04.132Z,68824.66
2022-08-28T06:53:34.036Z,68825.97
2022-08-28T06:56:09.910Z,68835.25
2022-08-28T06:58:42.538Z,68845.31
2022-08-28T07:01:24.185Z,68820.03
2022-08-28T07:03:54.980Z,68825.72
2022-08-28T07:06:24.003Z,68846.63
2022-08-28T07:08:51.951Z,68837.91
2022-08-28T07:11:26.104Z,68834.09
2022-08-28T07:13:55.543Z,68805.78
2022-08-28T07:16:26.863Z,68837.34
2022-08-28T07:18:54.449Z,68838.09
2022-08-28T07:21:22.743Z,68838.22
2022-08-28T07:23:50.414Z,68837.66
2022-08-28T07:26:23.350Z,68855.72
2022-08-28T07:28:51.953Z,68836.50
2022-08-28T07:31:23.049Z,68844.47
2022-08-28T07:33:54.261Z,68843.34
2022-08-28T07:36:29.921Z,68870.16
2022-08-28T07:39:00.298Z,68850.72
2022-08-28T07:41:37.906Z,68876.59
2022-08-28T07:44:26.524Z,68853.56
2022-08-28T07:47:00.227Z,68875.44
2022-08-28T07:49:28.379Z,68843.91
2022-08-28T07:51:55.670Z,68878.13
2022-08-28T07:54:23.693Z,68847.31
2022-08-28T07:56:52.804Z,68864.47
2022-08-28T07:59:20.324Z,68860.09
2022-08-28T08:01:51.861Z,68834.78
2022-08-28T08:04:20.833Z,68859.53
2022-08-28T08:06:49.103Z,68848.91
2022-08-28T08:09:21.252Z,68855.16
2022-08-28T08:11:50.196Z,68850.72
2022-08-28T08:14:21.085Z,68864.38
2022-08-28T08:16:56.366Z,68907.31
2022-08-28T08:19:26.000Z,68912.19
2022-08-28T08:21:55.137Z,68958.00
2022-08-28T08:24:28.813Z,68972.78
2022-08-28T08:27:00.757Z,68961.69
2022-08-28T08:29:31.612Z,68995.16
2022-08-28T08:32:06.237Z,68976.47
2022-08-28T08:34:38.728Z,69007.78
2022-08-28T08:37:06.362Z,69043.03
2022-08-28T08:51:35.366Z,69095.84
2022-08-28T08:54:15.391Z,69082.97
2022-08-28T08:56:44.967Z,69087.28
2022-08-28T08:59:25.841Z,69058.50
2022-08-28T09:02:22.506Z,69057.91
2022-08-28T09:05:06.686Z,69055.66
2022-08-28T09:07:34.834Z,69102.09
2022-08-28T09:10:02.330Z,69090.97
2022-08-28T09:13:41.218Z,69132.47
2022-08-28T09:16:55.718Z,69110.47
2022-08-28T09:19:25.280Z,69088.69
2022-08-28T09:21:53.246Z,69119.22
2022-08-28T09:24:28.974Z,69106.91
2022-08-28T09:27:08.939Z,69116.03
2022-08-28T09:31:19.552Z,69120.56
2022-08-28T09:34:07.298Z,69107.50
2022-08-28T09:37:25.144Z,69141.69
2022-08-28T09:40:24.772Z,69172.22
2022-08-28T09:43:27.096Z,69124.56
2022-08-28T09:46:56.412Z,69113.19
2022-08-28T09:49:45.629Z,69071.03
2022-08-28T09:52:33.760Z,69114.06
2022-08-28T09:55:03.227Z,69115.22
2022-08-28T09:57:32.784Z,69124.56
2022-08-28T10:00:06.663Z,69129.69
2022-08-28T10:03:09.746Z,69139.97
2022-08-28T10:05:51.941Z,69128.56
2022-08-28T10:08:48.416Z,69180.38
2022-08-28T10:11:34.754Z,69181.59
2022-08-28T10:14:28.653Z,69242.91
2022-08-28T10:17:14.172Z,69252.06
2022-08-28T10:19:49.949Z,69212.38
2022-08-28T10:22:59.455Z,69183.88
2022-08-28T10:25:58.132Z,69166.19
2022-08-28T10:28:39.974Z,69140.56
2022-08-28T10:31:26.804Z,69155.66
2022-08-28T10:34:14.777Z,69162.94
2022-08-28T10:36:50.934Z,69156.50
2022-08-28T10:39:47.890Z,69246.34
2022-08-28T10:42:27.859Z,69238.19
2022-08-28T10:45:15.035Z,69178.72
2022-08-28T10:47:51.502Z,69155.94
2022-08-28T10:50:24.086Z,69212.72
2022-08-28T10:53:00.343Z,69239.75
2022-08-28T10:55:36.592Z,69310.66
2022-08-28T10:58:23.831Z,69255.16
2022-08-28T11:01:01.669Z,69240.88
2022-08-28T11:03:34.839Z,69224.91
2022-08-28T11:06:11.603Z,69246.59
2022-08-28T11:08:39.884Z,69268.25
2022-08-28T11:11:14.065Z,69309.09
2022-08-28T11:13:58.403Z,69250.56
2022-08-28T11:16:42.196Z,69274.88
2022-08-28T11:19:22.813Z,69284.81
2022-08-28T11:22:04.760Z,69316.75
2022-08-28T11:24:50.640Z,69293.91
2022-08-28T11:27:35.618Z,69260.28
2022-08-28T11:30:10.837Z,69232.09
2022-08-28T11:32:49.707Z,69235.16
2022-08-28T11:35:53.373Z,69263.13
2022-08-28T11:38:43.467Z,69283.66
2022-08-28T11:41:23.114Z,69300.22
2022-08-28T11:44:04.487Z,69288.78
2022-08-28T11:46:33.872Z,69288.41
2022-08-28T11:49:05.318Z,69276.59
2022-08-28T11:51:57.616Z,69289.91
2022-08-28T11:54:37.763Z,69347.34
2022-08-28T11:57:13.641Z,69345.28
2022-08-28T11:59:55.565Z,69335.00
2022-08-28T12:02:59.688Z,69325.31
2022-08-28T12:05:33.184Z,69328.16
2022-08-28T12:08:02.645Z,69327.00
2022-08-28T12:10:30.866Z,69332.16
2022-08-28T12:13:09.952Z,69348.72
2022-08-28T12:15:42.152Z,69353.28
2022-08-28T12:18:12.580Z,69349.28
2022-08-28T12:21:00.783Z,69384.06
2022-08-28T12:23:36.710Z,69376.69
2022-08-28T12:26:18.991Z,69372.69
2022-08-28T12:29:00.469Z,69387.50
2022-08-28T12:32:08.122Z,69406.91
2022-08-28T12:34:57.410Z,69401.78
2022-08-28T12:37:52.733Z,69412.63
2022-08-28T12:40:50.204Z,69380.09
2022-08-28T12:43:26.144Z,69390.72
2022-08-28T12:46:04.027Z,69396.44
2022-08-28T12:48:33.346Z,69375.53
2022-08-28T12:51:06.415Z,69393.22
2022-08-28T12:53:45.274Z,69412.06
2022-08-28T12:56:17.051Z,69450.91
2022-08-28T12:58:45.408Z,69482.88
2022-08-28T13:01:16.263Z,69522.09
2022-08-28T13:03:49.865Z,69446.34
2022-08-28T13:06:38.591Z,69408.63
2022-08-28T13:09:14.652Z,69410.72
2022-08-28T13:11:49.506Z,69405.00
2022-08-28T13:14:37.918Z,69416.63
2022-08-28T13:17:05.403Z,69413.16
2022-08-28T13:19:34.274Z,69391.88
2022-08-28T13:22:05.808Z,69361.25
2022-08-28T13:24:40.159Z,69388.66
2022-08-28T13:27:16.738Z,69389.22
2022-08-28T13:30:21.135Z,69399.88
2022-08-28T13:33:14.974Z,69407.88
2022-08-28T13:35:42.707Z,69397.59
2022-08-28T13:38:13.135Z,69379.50
2022-08-28T13:40:59.364Z,69393.22
2022-08-28T13:43:30.363Z,69399.50
2022-08-28T13:45:57.958Z,69420.59
2022-08-28T13:48:27.317Z,69420.03
2022-08-28T13:51:03.168Z,69418.69
2022-08-28T13:53:32.743Z,69402.72
2022-08-28T13:56:00.520Z,69387.88
2022-08-28T13:58:28.263Z,69372.13
2022-08-28T14:00:55.659Z,69369.25
2022-08-28T14:03:39.056Z,69369.81
2022-08-28T14:06:12.796Z,69353.28
2022-08-28T14:08:42.008Z,69347.56
2022-08-28T14:11:12.699Z,69353.28
2022-08-28T14:13:47.073Z,69377.81
2022-08-28T14:16:24.971Z,69378.38
2022-08-28T14:18:53.086Z,69394.94
2022-08-28T14:21:22.116Z,69450.34
2022-08-28T14:23:49.348Z,69496.00
2022-08-28T14:26:16.552Z,69535.41
2022-08-28T14:28:43.732Z,69531.41
2022-08-28T14:31:14.387Z,69527.41
2022-08-28T14:33:45.172Z,69568.97
2022-08-28T14:36:22.500Z,69557.72
2022-08-28T14:38:53.886Z,69511.41
2022-08-28T14:41:23.137Z,69505.53
2022-08-28T14:43:50.574Z,69472.03
2022-08-28T14:46:25.100Z,69489.72
2022-08-28T14:48:52.491Z,69478.88
2022-08-28T14:51:19.621Z,69443.44
2022-08-28T14:53:48.345Z,69462.88
2022-08-28T14:56:15.742Z,69508.56
2022-08-28T14:58:43.240Z,69538.84
2022-08-28T15:01:10.487Z,69563.44
2022-08-28T15:03:37.942Z,69589.72
2022-08-28T15:06:09.206Z,69599.97
2022-08-28T15:08:37.479Z,69608.00
2022-08-28T15:11:07.338Z,69596.00
2022-08-28T15:13:35.458Z,69575.44
2022-08-28T15:16:06.466Z,69590.09
2022-08-28T15:18:45.722Z,69565.72
2022-08-28T15:21:18.336Z,69578.28
2022-08-28T15:23:45.921Z,69596.00
2022-08-28T15:26:15.484Z,69582.84
2022-08-28T15:28:43.148Z,69572.25
2022-08-28T15:31:10.524Z,69569.53
2022-08-28T15:33:40.170Z,69560.00
2022-08-28T15:36:10.835Z,69564.56
2022-08-28T15:38:56.716Z,69561.72
2022-08-28T15:41:25.593Z,69557.72
2022-08-28T15:43:54.977Z,69560.00
2022-08-28T15:46:23.389Z,69560.56
2022-08-28T15:48:50.573Z,69558.28
2022-08-28T15:51:25.951Z,69552.00
2022-08-28T15:53:55.668Z,69542.28
2022-08-28T15:56:23.507Z,69541.16
2022-08-28T15:58:51.919Z,69517.13
2022-08-28T16:01:20.637Z,69478.88
2022-08-28T16:03:47.918Z,69482.28
2022-08-28T16:06:23.323Z,69497.53
2022-08-28T16:08:50.657Z,69476.59
2022-08-28T16:11:19.751Z,69474.88
2022-08-28T16:13:47.406Z,69469.75
2022-08-28T16:16:14.903Z,69472.03
2022-08-28T16:18:42.780Z,69466.88
2022-08-28T16:21:10.754Z,69474.88
2022-08-28T16:23:38.828Z,69464.03
2022-08-28T16:26:07.434Z,69460.03
2022-08-28T16:28:35.967Z,69464.59
2022-08-28T16:31:07.521Z,69483.25
2022-08-28T16:33:46.254Z,69485.22
2022-08-28T16:36:14.169Z,69479.09
2022-08-28T16:38:43.526Z,69453.75
2022-08-28T16:41:23.944Z,69440.59
2022-08-28T16:43:55.485Z,69460.22
2022-08-28T16:46:24.896Z,69455.25
2022-08-28T16:48:53.885Z,69421.75
2022-08-28T16:51:21.553Z,69404.06
2022-08-28T16:53:48.853Z,69398.34
2022-08-28T16:56:17.789Z,69388.09
2022-08-28T16:58:46.055Z,69410.72
2022-08-28T17:01:13.878Z,69406.16
2022-08-28T17:03:42.479Z,69403.31
2022-08-28T17:06:13.979Z,69407.13
2022-08-28T17:08:41.559Z,69377.81
2022-08-28T17:11:08.841Z,69404.03
2022-08-28T17:13:36.327Z,69385.03
2022-08-28T17:16:04.330Z,69364.69
2022-08-28T17:18:32.845Z,69353.28
2022-08-28T17:21:19.076Z,69379.31
2022-08-28T17:23:46.733Z,69364.47
2022-08-28T17:26:15.412Z,69352.88
2022-08-28T17:28:43.499Z,69335.19
2022-08-28T17:31:12.427Z,69305.31
2022-08-28T17:33:41.348Z,69313.09
2022-08-28T17:36:17.067Z,69321.66
2022-08-28T17:38:58.530Z,69289.91
2022-08-28T17:41:25.764Z,69289.16
2022-08-28T17:43:53.238Z,69283.44
2022-08-28T17:46:20.429Z,69272.59
2022-08-28T17:48:54.273Z,69269.59
2022-08-28T17:51:33.858Z,69240.31
2022-08-28T17:54:12.762Z,69237.44
2022-08-28T17:56:40.669Z,69252.63
2022-08-28T17:59:07.991Z,69219.72
2022-08-28T18:01:36.254Z,69222.22
2022-08-28T18:04:05.262Z,69226.56
2022-08-28T18:06:32.862Z,69202.69
2022-08-28T18:09:00.478Z,69191.84
2022-08-28T18:11:28.326Z,69203.81
2022-08-28T18:13:55.400Z,69220.13
2022-08-28T18:16:25.432Z,69221.09
2022-08-28T18:18:54.961Z,69207.97
2022-08-28T18:21:22.150Z,69195.03
2022-08-28T18:23:49.252Z,69200.72
2022-08-28T18:26:17.622Z,69208.13
2022-08-28T18:28:44.881Z,69196.00
2022-08-28T18:31:12.242Z,69179.81
2022-08-28T18:33:39.579Z,69179.47
2022-08-28T18:36:09.002Z,69158.22
2022-08-28T18:38:37.006Z,69136.53
2022-08-28T18:41:05.879Z,69125.16
2022-08-28T18:43:33.465Z,69148.28
2022-08-28T18:46:02.062Z,69163.66
2022-08-28T18:48:31.214Z,69165.38
2022-08-28T18:50:58.720Z,69167.31
2022-08-28T18:53:26.573Z,69158.53
2022-08-28T18:55:55.132Z,69133.13
2022-08-28T18:58:23.487Z,69154.94
2022-08-28T19:00:51.445Z,69158.34
2022-08-28T19:03:18.978Z,69147.69
2022-08-28T19:05:46.379Z,69153.78
2022-08-28T19:08:14.395Z,69150.53
2022-08-28T19:10:42.121Z,69123.44
2022-08-28T19:13:11.061Z,69140.66
2022-08-28T19:15:38.542Z,69120.34
2022-08-28T19:18:05.944Z,69104.38
2022-08-28T19:20:34.305Z,69117.88
2022-08-28T19:23:01.535Z,69111.78
2022-08-28T19:25:30.709Z,69078.44
2022-08-28T19:27:59.652Z,69107.06
2022-08-28T19:30:31.210Z,69082.97
2022-08-28T19:32:59.390Z,69089.84
2022-08-28T19:35:26.807Z,69094.94
2022-08-28T19:37:54.160Z,69104.22
2022-08-28T19:40:22.267Z,69104.22
2022-08-28T19:42:52.696Z,69097.38
2022-08-28T19:45:20.407Z,69086.53
2022-08-28T19:47:47.616Z,69083.69
2022-08-28T19:50:15.800Z,69064.78
2022-08-28T19:52:44.021Z,69093.53
2022-08-28T19:55:17.612Z,69084.44
2022-08-28T19:57:46.910Z,69079.31
2022-08-28T20:00:19.035Z,69083.69
2022-08-28T20:02:48.152Z,69079.31
2022-08-28T20:05:15.698Z,69084.44
2022-08-28T20:07:43.685Z,69080.84
2022-08-28T20:10:12.568Z,69074.56
2022-08-28T20:12:40.253Z,69074.19
2022-08-28T20:15:17.267Z,69050.50
2022-08-28T20:17:49.837Z,69063.75
2022-08-28T20:20:20.301Z,69059.94
2022-08-28T20:22:47.866Z,69060.91
2022-08-28T20:25:15.710Z,69035.72
2022-08-28T20:27:42.826Z,69062.81
2022-08-28T20:30:11.543Z,69044.25
2022-08-28T20:32:40.055Z,69061.09
2022-08-28T20:35:12.095Z,69040.28
2022-08-28T20:37:44.559Z,69059.38
2022-08-28T20:40:19.268Z,69038.56
2022-08-28T20:42:46.739Z,69028.88
2022-08-28T20:45:15.946Z,69043.22
2022-08-28T20:47:44.042Z,69050.25
2022-08-28T20:50:11.788Z,69039.25
2022-08-28T20:52:39.214Z,69035.44
2022-08-28T20:55:08.016Z,69001.53
2022-08-28T20:57:36.038Z,69025.19
2022-08-28T21:00:08.268Z,69022.34
2022-08-28T21:02:36.554Z,69020.44
2022-08-28T21:05:05.035Z,69009.78
2022-08-28T21:07:34.023Z,69012.25
2022-08-28T21:10:05.891Z,69024.44
2022-08-28T21:12:39.422Z,68990.72
2022-08-28T21:15:09.134Z,68997.84
2022-08-28T21:17:36.540Z,68991.03
2022-08-28T21:20:12.836Z,68955.41
2022-08-28T21:22:40.805Z,68981.75
2022-08-28T21:25:10.497Z,68987.81
2022-08-28T21:27:38.792Z,68980.03
2022-08-28T21:30:08.334Z,68955.41
2022-08-28T21:32:36.213Z,68974.34
2022-08-28T21:35:07.165Z,68974.91
2022-08-28T21:37:34.506Z,68959.97
2022-08-28T21:40:03.143Z,68954.28
2022-08-28T21:42:30.371Z,68971.66
2022-08-28T21:44:57.910Z,68976.59
2022-08-28T21:47:25.718Z,68972.06
2022-08-28T21:49:54.204Z,68975.47
2022-08-28T21:52:26.219Z,68966.94
2022-08-28T21:55:02.268Z,68954.03
2022-08-28T21:57:30.011Z,68947.00
2022-08-28T21:59:58.523Z,68934.38
2022-08-28T22:02:26.269Z,68949.28
2022-08-28T22:04:54.114Z,68946.25
2022-08-28T22:07:21.702Z,68939.03
2022-08-28T22:09:49.384Z,68933.91
2022-08-28T22:12:16.767Z,68934.66
2022-08-28T22:14:44.033Z,68924.78
2022-08-28T22:17:11.917Z,68907.31
2022-08-28T22:19:39.770Z,68912.84
2022-08-28T22:22:27.224Z,68913.78
2022-08-28T22:24:54.504Z,68910.00
2022-08-28T22:27:21.801Z,68897.47
2022-08-28T22:29:49.023Z,68896.34
2022-08-28T22:32:16.221Z,68893.47
2022-08-28T22:34:45.337Z,68883.41
2022-08-28T22:37:13.076Z,68885.72
2022-08-28T22:39:41.294Z,68887.97
2022-08-28T22:42:09.833Z,68874.06
2022-08-28T22:44:38.416Z,68888.94
2022-08-28T22:47:06.244Z,68884.97
2022-08-28T22:49:33.946Z,68878.31
2022-08-28T22:52:03.434Z,68867.88
2022-08-28T22:54:32.536Z,68849.03
2022-08-28T22:56:59.723Z,68843.91
2022-08-28T22:59:28.024Z,68858.22
2022-08-28T23:01:55.685Z,68851.16
2022-08-28T23:04:22.932Z,68844.72
2022-08-28T23:06:50.160Z,68845.31
2022-08-28T23:09:17.386Z,68840.38
2022-08-28T23:11:44.507Z,68840.59
2022-08-28T23:14:12.386Z,68835.06
2022-08-28T23:16:39.616Z,68838.31
2022-08-28T23:19:09.154Z,68807.50
2022-08-28T23:21:39.259Z,68827.09
2022-08-28T23:24:08.262Z,68829.75
2022-08-28T23:26:35.395Z,68820.84
2022-08-28T23:29:02.955Z,68815.34
2022-08-28T23:31:30.152Z,68824.81
2022-08-28T23:33:57.392Z,68802.41
2022-08-28T23:36:24.615Z,68820.69
2022-08-28T23:38:51.996Z,68821.06
2022-08-28T23:41:19.228Z,68811.19
2022-08-28T23:43:47.497Z,68798.69
2022-08-28T23:46:20.637Z,68772.78
2022-08-28T23:48:49.627Z,68792.22
2022-08-28T23:51:17.349Z,68794.09
2022-08-28T23:53:46.120Z,68792.97
2022-08-28T23:56:14.774Z,68800.75
2022-08-28T23:58:43.225Z,68782.75
